createdAt,value
2019-03-22T00:00:12.883Z,69.00
2019-03-22T00:02:41.357Z,69.40
2019-03-22T00:05:09.947Z,69.00
2019-03-22T00:07:38.405Z,69.40
2019-03-22T00:10:07.065Z,69.60
2019-03-22T00:12:35.515Z,69.10
2019-03-22T00:15:06.782Z,68.70
2019-03-22T00:17:35.227Z,68.50
2019-03-22T00:20:06.331Z,69.10
2019-03-22T00:22:34.780Z,69.70
2019-03-22T00:25:04.603Z,69.90
2019-03-22T00:27:33.043Z,70.00
2019-03-22T00:30:01.535Z,70.00
2019-03-22T00:32:29.977Z,69.40
2019-03-22T00:34:58.420Z,69.10
2019-03-22T00:37:26.879Z,69.00
2019-03-22T00:39:55.340Z,69.70
2019-03-22T00:42:23.862Z,70.30
2019-03-22T00:44:52.307Z,70.80
2019-03-22T00:47:20.755Z,71.00
2019-03-22T00:49:49.218Z,70.60
2019-03-22T00:52:17.751Z,70.70
2019-03-22T00:54:46.199Z,70.80
2019-03-22T00:57:14.656Z,70.80
2019-03-22T00:59:43.112Z,70.40
2019-03-22T01:02:11.559Z,70.50
2019-03-22T01:04:40.020Z,71.30
2019-03-22T01:07:08.539Z,72.30
2019-03-22T01:09:37.007Z,72.80
2019-03-22T01:12:05.448Z,73.40
2019-03-22T01:14:33.899Z,73.90
2019-03-22T01:17:02.353Z,74.10
2019-03-22T01:19:30.810Z,74.20
2019-03-22T01:21:59.267Z,74.10
2019-03-22T01:24:27.719Z,74.10
2019-03-22T01:26:56.179Z,74.10
2019-03-22T01:29:24.632Z,74.20
2019-03-22T01:31:53.614Z,74.30
2019-03-22T01:34:22.064Z,74.40
2019-03-22T01:36:50.682Z,74.30
2019-03-22T01:39:19.136Z,73.90
2019-03-22T01:41:47.581Z,73.20
2019-03-22T01:44:16.068Z,73.40
2019-03-22T01:46:44.519Z,73.10
2019-03-22T01:49:12.976Z,73.70
2019-03-22T01:51:41.448Z,73.80
2019-03-22T01:54:09.891Z,74.30
2019-03-22T01:56:38.341Z,74.60
2019-03-22T01:59:06.780Z,75.00
2019-03-22T02:01:35.309Z,74.80
2019-03-22T02:04:03.831Z,75.50
2019-03-22T02:06:32.275Z,74.60
2019-03-22T02:09:00.739Z,74.80
2019-03-22T02:11:29.183Z,75.00
2019-03-22T02:13:57.639Z,74.90
2019-03-22T02:16:26.091Z,75.40
2019-03-22T02:18:54.565Z,75.50
2019-03-22T02:21:23.017Z,75.40
2019-03-22T02:23:52.272Z,75.20
2019-03-22T02:26:20.989Z,75.00
2019-03-22T02:28:49.451Z,75.00
2019-03-22T02:31:17.898Z,75.30
2019-03-22T02:33:46.350Z,75.40
2019-03-22T02:36:14.904Z,74.60
2019-03-22T02:38:43.363Z,73.50
2019-03-22T02:41:11.796Z,72.90
2019-03-22T02:43:40.439Z,72.50
2019-03-22T02:46:08.891Z,72.30
2019-03-22T02:48:37.432Z,72.40
2019-03-22T02:51:06.041Z,71.70
2019-03-22T02:53:34.520Z,72.50
2019-03-22T02:56:03.102Z,72.80
2019-03-22T02:58:31.702Z,73.90
2019-03-22T03:01:00.222Z,74.00
2019-03-22T03:03:28.665Z,74.00
2019-03-22T03:05:57.220Z,73.90
2019-03-22T03:08:25.665Z,74.90
2019-03-22T03:10:54.109Z,75.80
2019-03-22T03:13:22.593Z,75.60
2019-03-22T03:15:51.125Z,75.80
2019-03-22T03:18:19.568Z,75.90
2019-03-22T03:20:48.028Z,75.80
2019-03-22T03:23:16.552Z,75.80
2019-03-22T03:25:45.004Z,75.90
2019-03-22T03:28:13.542Z,75.70
2019-03-22T03:30:42.045Z,75.10
2019-03-22T03:33:10.510Z,74.60
2019-03-22T03:35:39.029Z,75.00
2019-03-22T03:38:07.540Z,75.30
2019-03-22T03:40:35.999Z,75.60
2019-03-22T03:43:04.584Z,76.10
2019-03-22T03:45:34.780Z,76.30
2019-03-22T03:48:05.355Z,76.30
2019-03-22T03:50:33.947Z,76.50
2019-03-22T03:53:02.483Z,76.80
2019-03-22T03:55:30.980Z,76.90
2019-03-22T03:57:59.514Z,77.10
2019-03-22T04:00:28.027Z,77.50
2019-03-22T04:03:04.944Z,77.90
2019-03-22T04:05:33.433Z,78.60
2019-03-22T04:08:01.904Z,78.70
2019-03-22T04:10:30.354Z,79.20
2019-03-22T04:12:58.791Z,79.10
2019-03-22T04:15:27.268Z,78.90
2019-03-22T04:17:55.798Z,78.90
2019-03-22T04:20:24.241Z,78.80
2019-03-22T04:22:52.689Z,78.60
2019-03-22T04:25:21.182Z,78.60
2019-03-22T04:27:49.703Z,78.90
2019-03-22T04:30:18.209Z,79.40
2019-03-22T04:32:46.680Z,80.20
2019-03-22T04:35:15.294Z,78.70
2019-03-22T04:37:43.804Z,78.60
2019-03-22T04:40:23.895Z,79.00
2019-03-22T04:42:52.553Z,78.60
2019-03-22T04:45:21.138Z,78.50
2019-03-22T04:47:52.391Z,78.50
2019-03-22T04:50:22.160Z,78.00
2019-03-22T04:52:52.051Z,77.90
2019-03-22T04:55:21.943Z,77.90
2019-03-22T04:57:52.435Z,77.80
2019-03-22T05:00:21.557Z,78.70
2019-03-22T05:02:50.435Z,77.50
2019-03-22T05:05:20.323Z,77.50
2019-03-22T05:07:49.708Z,77.70
2019-03-22T05:10:19.200Z,77.60
2019-03-22T05:12:48.489Z,77.60
2019-03-22T05:15:19.671Z,78.50
2019-03-22T05:17:48.956Z,78.10
2019-03-22T05:20:20.529Z,78.60
2019-03-22T05:22:49.801Z,79.30
2019-03-22T05:25:20.104Z,79.60
2019-03-22T05:27:50.405Z,80.10
2019-03-22T05:30:47.783Z,79.10
2019-03-22T05:33:16.300Z,79.10
2019-03-22T05:35:44.747Z,79.10
2019-03-22T05:38:13.219Z,78.50
2019-03-22T05:40:41.730Z,77.60
2019-03-22T05:43:10.211Z,77.50
2019-03-22T05:45:38.671Z,76.70
2019-03-22T05:48:07.200Z,76.80
2019-03-22T05:50:35.708Z,76.40
2019-03-22T05:53:04.234Z,75.70
2019-03-22T05:55:32.773Z,75.60
2019-03-22T05:58:01.254Z,75.60
2019-03-22T06:00:29.760Z,75.30
2019-03-22T06:02:58.215Z,76.00
2019-03-22T06:05:26.687Z,76.30
2019-03-22T06:07:55.146Z,76.60
2019-03-22T06:10:23.668Z,76.40
2019-03-22T06:12:52.120Z,75.80
2019-03-22T06:15:20.583Z,75.70
2019-03-22T06:17:51.996Z,75.40
2019-03-22T06:20:19.229Z,75.10
2019-03-22T06:22:47.696Z,74.90
2019-03-22T06:25:16.158Z,74.20
2019-03-22T06:27:44.616Z,74.10
2019-03-22T06:30:13.800Z,73.10
2019-03-22T06:32:42.268Z,73.40
2019-03-22T06:35:10.787Z,74.40
2019-03-22T06:37:39.248Z,75.00
2019-03-22T06:40:08.872Z,75.70
2019-03-22T06:42:37.327Z,75.10
2019-03-22T06:45:06.424Z,74.80
2019-03-22T06:47:34.876Z,74.00
2019-03-22T06:50:04.359Z,73.60
2019-03-22T06:52:32.862Z,73.10
2019-03-22T06:55:01.423Z,72.80
2019-03-22T06:57:29.870Z,72.40
2019-03-22T07:00:06.614Z,72.30
2019-03-22T07:02:28.596Z,71.80
2019-03-22T07:04:57.130Z,71.50
2019-03-22T07:07:25.686Z,71.50
2019-03-22T07:09:54.141Z,71.00
2019-03-22T07:12:22.680Z,70.80
2019-03-22T07:14:51.148Z,70.00
2019-03-22T07:17:19.659Z,69.10
2019-03-22T07:19:48.151Z,68.40
2019-03-22T07:22:16.608Z,68.20
2019-03-22T07:24:45.083Z,68.20
2019-03-22T07:27:13.558Z,67.60
2019-03-22T07:29:42.103Z,67.60
2019-03-22T07:32:10.627Z,67.50
2019-03-22T07:34:39.086Z,67.50
2019-03-22T07:37:11.659Z,67.20
2019-03-22T07:39:39.337Z,67.30
2019-03-22T07:42:07.783Z,67.00
2019-03-22T07:44:36.238Z,65.90
2019-03-22T07:47:04.710Z,64.80
2019-03-22T07:49:33.229Z,64.60
2019-03-22T07:52:01.693Z,63.90
2019-03-22T07:54:30.139Z,63.50
2019-03-22T07:56:58.599Z,63.90
2019-03-22T07:59:27.087Z,63.90
2019-03-22T08:01:55.579Z,63.90
2019-03-22T08:04:24.096Z,64.30
2019-03-22T08:06:52.537Z,64.00
2019-03-22T08:09:21.005Z,63.80
2019-03-22T08:11:49.453Z,63.50
2019-03-22T08:14:17.925Z,63.30
2019-03-22T08:16:46.434Z,63.50
2019-03-22T08:19:14.896Z,62.70
2019-03-22T08:21:43.412Z,62.70
2019-03-22T08:24:11.928Z,62.70
2019-03-22T08:26:40.414Z,62.10
2019-03-22T08:29:08.894Z,62.40
2019-03-22T08:31:37.426Z,62.20
2019-03-22T08:34:05.931Z,61.60
2019-03-22T08:36:34.453Z,61.50
2019-03-22T08:39:02.900Z,61.40
2019-03-22T08:41:31.361Z,60.60
2019-03-22T08:44:02.619Z,60.40
2019-03-22T08:46:30.064Z,60.30
2019-03-22T08:48:58.626Z,59.90
2019-03-22T08:51:29.775Z,59.70
2019-03-22T08:53:57.268Z,59.60
2019-03-22T08:56:25.796Z,59.30
2019-03-22T08:58:54.279Z,58.60
2019-03-22T09:01:22.776Z,58.30
2019-03-22T09:03:51.300Z,56.90
2019-03-22T09:06:19.786Z,57.20
2019-03-22T09:08:48.289Z,57.20
2019-03-22T09:11:18.110Z,57.30
2019-03-22T09:13:46.972Z,57.20
2019-03-22T09:16:15.459Z,57.20
2019-03-22T09:18:43.984Z,56.50
2019-03-22T09:21:12.522Z,55.80
2019-03-22T09:23:41.064Z,54.80
2019-03-22T09:26:09.551Z,54.40
2019-03-22T09:28:38.001Z,53.90
2019-03-22T09:31:10.512Z,54.10
2019-03-22T09:33:36.728Z,53.30
2019-03-22T09:36:05.180Z,53.70
2019-03-22T09:38:33.649Z,53.50
2019-03-22T09:41:02.160Z,52.50
2019-03-22T09:43:30.730Z,52.10
2019-03-22T09:45:59.335Z,51.90
2019-03-22T09:48:27.860Z,50.70
2019-03-22T09:50:56.355Z,49.40
2019-03-22T09:53:24.859Z,48.90
2019-03-22T09:55:53.342Z,48.40
2019-03-22T09:58:21.791Z,48.90
2019-03-22T10:00:50.362Z,47.70
2019-03-22T10:03:18.895Z,48.10
2019-03-22T10:05:47.427Z,48.40
2019-03-22T10:08:15.880Z,47.90
2019-03-22T10:10:44.386Z,47.40
2019-03-22T10:13:12.871Z,47.10
2019-03-22T10:15:41.433Z,47.10
2019-03-22T10:18:09.914Z,46.90
2019-03-22T10:20:38.429Z,47.20
2019-03-22T10:23:06.934Z,45.80
2019-03-22T10:25:35.524Z,45.00
2019-03-22T10:28:04.085Z,45.30
2019-03-22T10:30:32.541Z,44.50
2019-03-22T10:33:01.152Z,39.30
2019-03-22T10:35:29.630Z,34.90
2019-03-22T10:38:00.911Z,29.40
2019-03-22T10:40:28.384Z,27.90
2019-03-22T10:42:56.898Z,24.90
2019-03-22T10:45:25.407Z,24.30
2019-03-22T10:47:53.972Z,23.80
2019-03-22T10:50:22.518Z,22.70
2019-03-22T10:52:51.080Z,22.40
2019-03-22T10:55:29.593Z,22.90
2019-03-22T10:57:49.721Z,23.50
2019-03-22T11:00:18.754Z,22.60
2019-03-22T11:02:47.319Z,22.80
2019-03-22T11:05:16.305Z,23.00
2019-03-22T11:07:44.777Z,23.50
2019-03-22T11:10:13.932Z,23.50
2019-03-22T11:12:42.472Z,22.80
2019-03-22T11:15:13.077Z,22.70
2019-03-22T11:17:41.540Z,24.00
2019-03-22T11:20:13.049Z,25.10
2019-03-22T11:22:41.638Z,24.00
2019-03-22T11:25:10.699Z,23.10
2019-03-22T11:27:39.248Z,22.70
2019-03-22T11:30:11.383Z,22.80
2019-03-22T11:32:39.995Z,23.20
2019-03-22T11:35:09.086Z,23.20
2019-03-22T11:37:37.544Z,21.80
2019-03-22T11:40:08.948Z,21.40
2019-03-22T11:42:37.484Z,22.20
2019-03-22T11:45:08.544Z,22.80
2019-03-22T11:47:36.997Z,23.40
2019-03-22T11:50:07.796Z,23.40
2019-03-22T11:52:36.408Z,22.30
2019-03-22T11:55:07.616Z,21.70
2019-03-22T11:57:36.080Z,22.50
2019-03-22T12:00:07.607Z,21.90
2019-03-22T12:02:36.066Z,23.10
2019-03-22T12:05:06.475Z,23.00
2019-03-22T12:07:34.997Z,22.40
2019-03-22T12:10:08.062Z,22.60
2019-03-22T12:12:36.595Z,22.00
2019-03-22T12:15:08.263Z,21.90
2019-03-22T12:17:36.932Z,20.80
2019-03-22T12:20:08.803Z,21.80
2019-03-22T12:22:38.606Z,22.00
2019-03-22T12:25:09.185Z,21.40
2019-03-22T12:27:37.674Z,20.80
2019-03-22T12:30:14.751Z,21.80
2019-03-22T12:32:43.245Z,20.20
2019-03-22T12:35:13.030Z,20.60
2019-03-22T12:37:41.556Z,20.90
2019-03-22T12:40:20.439Z,20.20
2019-03-22T12:42:49.451Z,20.80
2019-03-22T12:45:33.647Z,21.10
2019-03-22T12:48:02.120Z,21.50
2019-03-22T12:50:30.695Z,21.10
2019-03-22T12:52:59.168Z,20.90
2019-03-22T12:55:27.643Z,21.50
2019-03-22T12:57:56.171Z,21.30
2019-03-22T13:00:25.678Z,21.90
2019-03-22T13:02:54.600Z,21.60
2019-03-22T13:05:24.003Z,21.30
2019-03-22T13:07:52.681Z,21.20
2019-03-22T13:10:26.452Z,21.30
2019-03-22T13:12:55.210Z,20.70
2019-03-22T13:15:23.815Z,20.40
2019-03-22T13:17:52.312Z,20.70
2019-03-22T13:20:20.768Z,20.70
2019-03-22T13:22:49.320Z,20.70
2019-03-22T13:25:18.532Z,20.50
2019-03-22T13:27:47.056Z,19.30
2019-03-22T13:30:30.623Z,20.20
2019-03-22T13:32:59.588Z,20.10
2019-03-22T13:35:28.056Z,19.40
2019-03-22T13:37:56.499Z,20.00
2019-03-22T13:40:24.977Z,20.40
2019-03-22T13:42:53.567Z,20.30
2019-03-22T13:45:22.027Z,20.10
2019-03-22T13:47:50.479Z,19.90
2019-03-22T13:50:19.111Z,19.60
2019-03-22T13:52:47.566Z,20.20
2019-03-22T13:55:16.103Z,19.00
2019-03-22T13:57:44.626Z,19.00
2019-03-22T14:00:15.221Z,19.20
2019-03-22T14:02:43.690Z,19.50
2019-03-22T14:05:12.463Z,19.70
2019-03-22T14:07:40.923Z,20.40
2019-03-22T14:10:11.988Z,20.90
2019-03-22T14:12:40.487Z,21.20
2019-03-22T14:15:09.456Z,20.30
2019-03-22T14:17:37.939Z,20.30
2019-03-22T14:20:11.413Z,20.00
2019-03-22T14:22:37.389Z,20.20
2019-03-22T14:25:06.830Z,20.80
2019-03-22T14:27:35.284Z,20.60
2019-03-22T14:30:06.384Z,20.20
2019-03-22T14:32:36.375Z,21.30
2019-03-22T14:35:06.577Z,21.00
2019-03-22T14:37:35.038Z,21.00
2019-03-22T14:40:05.060Z,20.90
2019-03-22T14:42:34.673Z,21.00
2019-03-22T14:45:05.436Z,20.70
2019-03-22T14:47:33.985Z,19.60
2019-03-22T14:50:05.722Z,18.90
2019-03-22T14:52:38.068Z,19.40
2019-03-22T14:55:06.696Z,19.80
2019-03-22T14:57:35.153Z,19.80
2019-03-22T15:00:07.990Z,19.30
2019-03-22T15:02:36.516Z,18.60
2019-03-22T15:05:06.403Z,19.40
2019-03-22T15:07:34.873Z,20.00
2019-03-22T15:10:04.980Z,19.70
2019-03-22T15:12:33.521Z,19.70
2019-03-22T15:15:12.450Z,20.10
2019-03-22T15:17:42.632Z,20.10
2019-03-22T15:20:29.516Z,20.10
2019-03-22T15:23:13.397Z,20.20
2019-03-22T15:25:59.786Z,20.80
2019-03-22T15:28:46.373Z,22.00
2019-03-22T15:31:22.474Z,22.40
2019-03-22T15:34:08.805Z,23.10
2019-03-22T15:36:38.907Z,23.10
2019-03-22T15:39:26.181Z,23.50
2019-03-22T15:41:54.915Z,24.10
2019-03-22T15:46:51.925Z,25.70
2019-03-22T15:49:20.377Z,25.50
2019-03-22T15:51:48.956Z,25.70
2019-03-22T15:54:17.473Z,25.90
2019-03-22T15:56:45.933Z,26.40
2019-03-22T15:59:14.402Z,26.70
2019-03-22T16:01:42.856Z,26.40
2019-03-22T16:04:11.397Z,26.50
2019-03-22T16:06:39.862Z,26.30
2019-03-22T16:09:08.702Z,26.80
2019-03-22T16:11:37.232Z,27.80
2019-03-22T16:14:05.958Z,28.70
2019-03-22T16:16:34.410Z,29.10
2019-03-22T16:19:02.885Z,29.50
2019-03-22T16:21:31.346Z,29.70
2019-03-22T16:23:59.797Z,30.10
2019-03-22T16:26:28.295Z,30.20
2019-03-22T16:28:56.781Z,30.00
2019-03-22T16:31:25.248Z,30.30
2019-03-22T16:33:54.780Z,30.40
2019-03-22T16:36:23.735Z,31.20
2019-03-22T16:38:52.196Z,31.70
2019-03-22T16:41:20.640Z,32.00
2019-03-22T16:43:49.091Z,32.50
2019-03-22T16:46:17.680Z,33.10
2019-03-22T16:48:46.166Z,33.40
2019-03-22T16:51:14.622Z,33.90
2019-03-22T16:53:43.126Z,34.20
2019-03-22T16:56:11.612Z,34.60
2019-03-22T16:58:40.088Z,35.00
2019-03-22T17:01:08.564Z,35.40
2019-03-22T17:03:37.092Z,35.90
2019-03-22T17:06:05.560Z,36.50
2019-03-22T17:08:34.024Z,37.50
2019-03-22T17:11:02.562Z,38.30
2019-03-22T17:13:31.114Z,39.10
2019-03-22T17:15:59.556Z,39.40
2019-03-22T17:18:28.051Z,39.80
2019-03-22T17:20:56.512Z,40.40
2019-03-22T17:23:24.990Z,40.80
2019-03-22T17:25:53.449Z,41.20
2019-03-22T17:28:21.923Z,41.70
2019-03-22T17:30:50.397Z,42.00
2019-03-22T17:33:18.935Z,42.40
2019-03-22T17:35:47.417Z,42.70
2019-03-22T17:38:15.975Z,42.90
2019-03-22T17:40:44.511Z,43.20
2019-03-22T17:43:13.055Z,43.60
2019-03-22T17:45:41.615Z,44.00
2019-03-22T17:48:10.167Z,44.20
2019-03-22T17:50:38.655Z,44.40
2019-03-22T17:53:07.191Z,44.80
2019-03-22T17:55:35.677Z,45.20
2019-03-22T17:58:04.254Z,45.40
2019-03-22T18:00:32.816Z,45.50
2019-03-22T18:03:01.382Z,45.80
2019-03-22T18:05:29.943Z,46.20
2019-03-22T18:07:58.421Z,46.70
2019-03-22T18:10:26.895Z,47.10
2019-03-22T18:12:55.434Z,47.90
2019-03-22T18:15:23.913Z,48.50
2019-03-22T18:17:52.439Z,49.10
2019-03-22T18:20:20.905Z,49.40
2019-03-22T18:22:49.399Z,49.90
2019-03-22T18:25:17.850Z,50.60
2019-03-22T18:27:46.294Z,50.60
2019-03-22T18:30:17.204Z,50.80
2019-03-22T18:32:45.717Z,51.00
2019-03-22T18:35:14.263Z,51.10
2019-03-22T18:37:42.791Z,51.40
2019-03-22T18:40:15.245Z,51.70
2019-03-22T18:42:43.912Z,52.20
2019-03-22T18:45:15.653Z,52.60
2019-03-22T18:47:44.220Z,53.10
2019-03-22T18:50:13.752Z,53.50
2019-03-22T18:52:42.208Z,54.00
2019-03-22T18:55:10.841Z,54.60
2019-03-22T18:57:39.368Z,54.70
2019-03-22T19:00:13.592Z,55.00
2019-03-22T19:02:42.078Z,55.30
2019-03-22T19:05:10.669Z,55.70
2019-03-22T19:07:39.224Z,56.10
2019-03-22T19:10:10.910Z,56.30
2019-03-22T19:12:39.429Z,56.60
2019-03-22T19:15:15.341Z,57.00
2019-03-22T19:17:43.864Z,57.20
2019-03-22T19:20:14.870Z,57.50
2019-03-22T19:22:43.431Z,58.00
2019-03-22T19:25:14.395Z,58.30
2019-03-22T19:27:42.621Z,58.50
2019-03-22T19:30:13.708Z,58.70
2019-03-22T19:32:42.174Z,59.10
2019-03-22T19:35:11.137Z,59.60
2019-03-22T19:37:39.589Z,59.80
2019-03-22T19:40:13.640Z,60.10
2019-03-22T19:42:42.119Z,59.40
2019-03-22T19:45:11.993Z,59.20
2019-03-22T19:47:40.557Z,58.60
2019-03-22T19:50:14.016Z,59.00
2019-03-22T19:52:43.027Z,59.40
2019-03-22T19:55:11.993Z,59.90
2019-03-22T19:57:40.465Z,60.20
2019-03-22T20:00:11.884Z,60.50
2019-03-22T20:02:40.360Z,61.00
2019-03-22T20:05:09.548Z,61.50
2019-03-22T20:07:40.205Z,61.90
2019-03-22T20:10:11.630Z,62.40
2019-03-22T20:12:40.227Z,62.60
2019-03-22T20:15:09.967Z,63.00
2019-03-22T20:17:38.671Z,62.80
2019-03-22T20:20:08.813Z,62.90
2019-03-22T20:22:37.337Z,62.60
2019-03-22T20:25:07.928Z,63.00
2019-03-22T20:27:36.472Z,62.80
2019-03-22T20:30:07.571Z,63.00
2019-03-22T20:32:36.076Z,63.60
2019-03-22T20:35:15.768Z,63.60
2019-03-22T20:37:37.560Z,64.30
2019-03-22T20:40:08.727Z,64.90
2019-03-22T20:42:37.184Z,65.20
2019-03-22T20:45:06.394Z,64.80
2019-03-22T20:47:34.894Z,64.90
2019-03-22T20:50:05.056Z,65.20
2019-03-22T20:52:33.514Z,65.50
2019-03-22T20:55:02.006Z,66.00
2019-03-22T20:57:30.540Z,66.30
2019-03-22T20:59:59.013Z,66.40
2019-03-22T21:02:27.584Z,66.40
2019-03-22T21:04:56.044Z,66.10
2019-03-22T21:07:24.508Z,66.50
2019-03-22T21:09:53.076Z,66.90
2019-03-22T21:12:21.620Z,66.90
2019-03-22T21:14:50.227Z,67.20
2019-03-22T21:17:18.714Z,67.50
2019-03-22T21:19:47.166Z,67.30
2019-03-22T21:22:15.619Z,67.60
2019-03-22T21:24:44.100Z,67.80
2019-03-22T21:27:15.943Z,67.80
2019-03-22T21:29:44.418Z,67.80
2019-03-22T21:32:12.964Z,68.20
2019-03-22T21:34:43.855Z,68.80
2019-03-22T21:37:11.666Z,68.60
2019-03-22T21:39:40.211Z,69.30
2019-03-22T21:42:08.681Z,69.20
2019-03-22T21:44:37.188Z,69.50
2019-03-22T21:47:05.721Z,69.30
2019-03-22T21:49:34.252Z,69.60
2019-03-22T21:52:02.720Z,69.50
2019-03-22T21:54:31.204Z,69.50
2019-03-22T21:56:59.679Z,69.40
2019-03-22T21:59:28.233Z,69.40
2019-03-22T22:01:56.715Z,69.80
2019-03-22T22:04:25.183Z,69.80
2019-03-22T22:06:53.629Z,70.00
2019-03-22T22:09:22.087Z,70.20
2019-03-22T22:11:50.559Z,70.20
2019-03-22T22:14:19.017Z,70.40
2019-03-22T22:16:47.469Z,70.30
2019-03-22T22:19:15.933Z,70.80
2019-03-22T22:21:44.410Z,70.50
2019-03-22T22:24:12.941Z,70.80
2019-03-22T22:26:41.392Z,71.20
2019-03-22T22:29:09.867Z,71.20
2019-03-22T22:31:38.413Z,71.50
2019-03-22T22:34:06.930Z,71.80
2019-03-22T22:36:35.428Z,68.60
2019-03-22T22:39:05.356Z,67.10
2019-03-22T22:41:33.986Z,65.80
2019-03-22T22:44:02.446Z,65.10
2019-03-22T22:46:30.920Z,64.60
2019-03-22T22:48:59.387Z,64.30
2019-03-22T22:51:27.860Z,64.40
2019-03-22T22:53:59.148Z,64.30
2019-03-22T22:56:27.614Z,64.00
2019-03-22T22:58:56.090Z,63.90
2019-03-22T23:01:24.558Z,63.80
2019-03-22T23:03:53.033Z,63.60
2019-03-22T23:06:21.501Z,63.40
2019-03-22T23:08:49.976Z,63.00
2019-03-22T23:11:18.440Z,63.20
2019-03-22T23:13:46.996Z,63.40
2019-03-22T23:16:15.452Z,63.60
2019-03-22T23:18:43.922Z,63.60
2019-03-22T23:21:12.416Z,64.50
2019-03-22T23:23:40.884Z,64.10
2019-03-22T23:26:09.346Z,64.40
2019-03-22T23:28:37.853Z,66.20
2019-03-22T23:31:06.305Z,67.40
2019-03-22T23:33:34.784Z,67.30
2019-03-22T23:36:03.324Z,67.70
2019-03-22T23:38:31.794Z,68.20
2019-03-22T23:41:00.251Z,69.10
2019-03-22T23:43:28.751Z,68.20
2019-03-22T23:45:57.225Z,69.00
2019-03-22T23:48:25.701Z,68.40
2019-03-22T23:50:54.171Z,68.50
2019-03-22T23:53:22.644Z,69.70
2019-03-22T23:55:55.656Z,70.10
2019-03-22T23:58:24.147Z,70.40
